sensor_id;sensor_type;location;lat;lon;timestamp;P1;durP1;ratioP1;P2;durP2;ratioP2
45368;SDS011;51342;55.250;37.668;2024-02-23T00:03:25;44.10;;;19.63;;
45368;SDS011;51342;55.250;37.668;2024-02-23T00:05:57;44.40;;;20.40;;
45368;SDS011;51342;55.250;37.668;2024-02-23T00:08:29;49.03;;;21.33;;
45368;SDS011;51342;55.250;37.668;2024-02-23T00:11:01;45.80;;;21.83;;
45368;SDS011;51342;55.250;37.668;2024-02-23T00:13:32;50.77;;;21.47;;
45368;SDS011;51342;55.250;37.668;2024-02-23T00:16:04;42.63;;;19.97;;
45368;SDS011;51342;55.250;37.668;2024-02-23T00:18:35;43.33;;;20.17;;
45368;SDS011;51342;55.250;37.668;2024-02-23T00:21:06;45.63;;;20.90;;
45368;SDS011;51342;55.250;37.668;2024-02-23T00:23:38;45.77;;;20.23;;
45368;SDS011;51342;55.250;37.668;2024-02-23T00:26:09;45.43;;;19.53;;
45368;SDS011;51342;55.250;37.668;2024-02-23T00:28:41;47.77;;;20.07;;
45368;SDS011;51342;55.250;37.668;2024-02-23T00:31:13;47.00;;;19.80;;
45368;SDS011;51342;55.250;37.668;2024-02-23T00:33:44;49.57;;;21.40;;
45368;SDS011;51342;55.250;37.668;2024-02-23T00:36:16;47.17;;;21.80;;
45368;SDS011;51342;55.250;37.668;2024-02-23T00:38:47;46.80;;;18.83;;
45368;SDS011;51342;55.250;37.668;2024-02-23T00:41:19;48.17;;;20.47;;
45368;SDS011;51342;55.250;37.668;2024-02-23T00:43:50;49.23;;;20.70;;
45368;SDS011;51342;55.250;37.668;2024-02-23T00:46:22;47.93;;;20.53;;
45368;SDS011;51342;55.250;37.668;2024-02-23T00:48:53;45.93;;;20.83;;
45368;SDS011;51342;55.250;37.668;2024-02-23T00:51:25;45.77;;;19.63;;
45368;SDS011;51342;55.250;37.668;2024-02-23T00:53:56;45.23;;;19.60;;
45368;SDS011;51342;55.250;37.668;2024-02-23T00:56:28;50.87;;;21.30;;
45368;SDS011;51342;55.250;37.668;2024-02-23T00:58:59;43.93;;;18.77;;
45368;SDS011;51342;55.250;37.668;2024-02-23T01:01:30;45.63;;;20.40;;
45368;SDS011;51342;55.250;37.668;2024-02-23T01:04:03;44.17;;;20.47;;
45368;SDS011;51342;55.250;37.668;2024-02-23T01:06:34;50.27;;;20.03;;
45368;SDS011;51342;55.250;37.668;2024-02-23T01:09:06;49.10;;;20.33;;
45368;SDS011;51342;55.250;37.668;2024-02-23T01:11:38;43.17;;;20.73;;
45368;SDS011;51342;55.250;37.668;2024-02-23T01:14:09;47.07;;;20.30;;
45368;SDS011;51342;55.250;37.668;2024-02-23T01:16:40;50.80;;;20.20;;
45368;SDS011;51342;55.250;37.668;2024-02-23T01:19:12;45.30;;;20.87;;
45368;SDS011;51342;55.250;37.668;2024-02-23T01:21:44;49.87;;;20.57;;
45368;SDS011;51342;55.250;37.668;2024-02-23T01:24:15;55.37;;;21.63;;
45368;SDS011;51342;55.250;37.668;2024-02-23T01:26:47;47.47;;;20.40;;
45368;SDS011;51342;55.250;37.668;2024-02-23T01:29:18;47.10;;;20.47;;
45368;SDS011;51342;55.250;37.668;2024-02-23T01:31:50;44.57;;;20.53;;
45368;SDS011;51342;55.250;37.668;2024-02-23T01:34:22;45.63;;;20.37;;
45368;SDS011;51342;55.250;37.668;2024-02-23T01:36:53;45.83;;;21.03;;
45368;SDS011;51342;55.250;37.668;2024-02-23T01:39:25;46.03;;;20.17;;
45368;SDS011;51342;55.250;37.668;2024-02-23T01:41:57;48.17;;;20.70;;
45368;SDS011;51342;55.250;37.668;2024-02-23T01:44:28;48.93;;;21.67;;
45368;SDS011;51342;55.250;37.668;2024-02-23T01:47:00;45.63;;;21.03;;
45368;SDS011;51342;55.250;37.668;2024-02-23T01:49:32;48.90;;;20.80;;
45368;SDS011;51342;55.250;37.668;2024-02-23T01:52:04;44.97;;;19.50;;
45368;SDS011;51342;55.250;37.668;2024-02-23T01:54:36;55.40;;;20.53;;
45368;SDS011;51342;55.250;37.668;2024-02-23T01:57:08;45.43;;;19.63;;
45368;SDS011;51342;55.250;37.668;2024-02-23T01:59:40;44.90;;;20.63;;
45368;SDS011;51342;55.250;37.668;2024-02-23T02:02:12;48.63;;;19.63;;
45368;SDS011;51342;55.250;37.668;2024-02-23T02:04:44;49.47;;;20.47;;
45368;SDS011;51342;55.250;37.668;2024-02-23T02:07:15;46.87;;;20.37;;
45368;SDS011;51342;55.250;37.668;2024-02-23T02:09:49;46.90;;;20.60;;
45368;SDS011;51342;55.250;37.668;2024-02-23T02:12:29;50.53;;;19.80;;
45368;SDS011;51342;55.250;37.668;2024-02-23T02:15:03;50.97;;;21.07;;
45368;SDS011;51342;55.250;37.668;2024-02-23T02:17:35;53.57;;;20.63;;
45368;SDS011;51342;55.250;37.668;2024-02-23T02:20:07;47.77;;;20.53;;
45368;SDS011;51342;55.250;37.668;2024-02-23T02:22:42;51.67;;;21.60;;
45368;SDS011;51342;55.250;37.668;2024-02-23T02:25:14;51.83;;;19.83;;
45368;SDS011;51342;55.250;37.668;2024-02-23T02:27:48;57.97;;;19.80;;
45368;SDS011;51342;55.250;37.668;2024-02-23T02:30:20;50.80;;;19.60;;
45368;SDS011;51342;55.250;37.668;2024-02-23T02:32:51;49.20;;;19.83;;
45368;SDS011;51342;55.250;37.668;2024-02-23T02:35:23;51.83;;;21.17;;
45368;SDS011;51342;55.250;37.668;2024-02-23T02:37:54;51.30;;;21.17;;
45368;SDS011;51342;55.250;37.668;2024-02-23T02:40:26;55.63;;;21.00;;
45368;SDS011;51342;55.250;37.668;2024-02-23T02:42:57;50.17;;;18.93;;
45368;SDS011;51342;55.250;37.668;2024-02-23T02:45:29;50.37;;;19.90;;
45368;SDS011;51342;55.250;37.668;2024-02-23T02:48:00;53.17;;;20.20;;
45368;SDS011;51342;55.250;37.668;2024-02-23T02:50:33;49.13;;;19.63;;
45368;SDS011;51342;55.250;37.668;2024-02-23T02:53:04;53.63;;;19.83;;
45368;SDS011;51342;55.250;37.668;2024-02-23T02:55:36;52.03;;;20.43;;
45368;SDS011;51342;55.250;37.668;2024-02-23T02:58:08;48.70;;;19.63;;
45368;SDS011;51342;55.250;37.668;2024-02-23T03:00:40;54.67;;;19.80;;
45368;SDS011;51342;55.250;37.668;2024-02-23T03:03:11;54.27;;;20.27;;
45368;SDS011;51342;55.250;37.668;2024-02-23T03:05:43;49.53;;;19.33;;
45368;SDS011;51342;55.250;37.668;2024-02-23T03:08:15;53.80;;;20.47;;
45368;SDS011;51342;55.250;37.668;2024-02-23T03:10:46;53.80;;;20.37;;
45368;SDS011;51342;55.250;37.668;2024-02-23T03:13:19;55.53;;;19.90;;
45368;SDS011;51342;55.250;37.668;2024-02-23T03:15:51;56.87;;;21.67;;
45368;SDS011;51342;55.250;37.668;2024-02-23T03:18:22;52.27;;;19.70;;
45368;SDS011;51342;55.250;37.668;2024-02-23T03:20:53;52.90;;;20.30;;
45368;SDS011;51342;55.250;37.668;2024-02-23T03:23:26;51.00;;;19.63;;
45368;SDS011;51342;55.250;37.668;2024-02-23T03:25:57;57.37;;;20.17;;
45368;SDS011;51342;55.250;37.668;2024-02-23T03:28:29;57.13;;;21.43;;
45368;SDS011;51342;55.250;37.668;2024-02-23T03:31:00;55.17;;;20.53;;
45368;SDS011;51342;55.250;37.668;2024-02-23T03:33:31;52.93;;;20.83;;
45368;SDS011;51342;55.250;37.668;2024-02-23T03:36:03;59.57;;;20.83;;
45368;SDS011;51342;55.250;37.668;2024-02-23T03:38:35;54.07;;;20.07;;
45368;SDS011;51342;55.250;37.668;2024-02-23T03:41:06;48.90;;;19.43;;
45368;SDS011;51342;55.250;37.668;2024-02-23T03:43:38;56.03;;;20.13;;
45368;SDS011;51342;55.250;37.668;2024-02-23T03:46:09;49.47;;;20.40;;
45368;SDS011;51342;55.250;37.668;2024-02-23T03:48:42;60.03;;;20.33;;
45368;SDS011;51342;55.250;37.668;2024-02-23T03:51:14;60.57;;;21.00;;
45368;SDS011;51342;55.250;37.668;2024-02-23T03:53:46;54.17;;;20.37;;
45368;SDS011;51342;55.250;37.668;2024-02-23T03:56:17;51.83;;;19.33;;
45368;SDS011;51342;55.250;37.668;2024-02-23T03:58:49;59.20;;;19.57;;
45368;SDS011;51342;55.250;37.668;2024-02-23T04:01:20;55.40;;;21.43;;
45368;SDS011;51342;55.250;37.668;2024-02-23T04:03:52;56.43;;;20.63;;
45368;SDS011;51342;55.250;37.668;2024-02-23T04:06:23;56.23;;;21.20;;
45368;SDS011;51342;55.250;37.668;2024-02-23T04:08:54;57.83;;;21.77;;
45368;SDS011;51342;55.250;37.668;2024-02-23T04:11:26;55.80;;;20.60;;
45368;SDS011;51342;55.250;37.668;2024-02-23T04:13:57;60.70;;;21.27;;
45368;SDS011;51342;55.250;37.668;2024-02-23T04:16:28;58.53;;;21.70;;
45368;SDS011;51342;55.250;37.668;2024-02-23T04:19:00;56.93;;;19.97;;
45368;SDS011;51342;55.250;37.668;2024-02-23T04:21:31;57.43;;;21.10;;
45368;SDS011;51342;55.250;37.668;2024-02-23T04:24:03;55.90;;;19.73;;
45368;SDS011;51342;55.250;37.668;2024-02-23T04:26:34;63.33;;;21.80;;
45368;SDS011;51342;55.250;37.668;2024-02-23T04:29:06;53.53;;;20.73;;
45368;SDS011;51342;55.250;37.668;2024-02-23T04:31:37;61.97;;;22.33;;
45368;SDS011;51342;55.250;37.668;2024-02-23T04:34:09;52.37;;;19.73;;
45368;SDS011;51342;55.250;37.668;2024-02-23T04:36:40;55.47;;;21.90;;
45368;SDS011;51342;55.250;37.668;2024-02-23T04:39:12;58.07;;;21.70;;
45368;SDS011;51342;55.250;37.668;2024-02-23T04:41:43;56.73;;;21.10;;
45368;SDS011;51342;55.250;37.668;2024-02-23T04:44:15;55.63;;;21.33;;
45368;SDS011;51342;55.250;37.668;2024-02-23T04:46:46;62.57;;;23.07;;
45368;SDS011;51342;55.250;37.668;2024-02-23T04:49:17;60.50;;;21.70;;
45368;SDS011;51342;55.250;37.668;2024-02-23T04:51:49;66.83;;;21.57;;
45368;SDS011;51342;55.250;37.668;2024-02-23T04:54:20;56.13;;;20.87;;
45368;SDS011;51342;55.250;37.668;2024-02-23T04:56:51;55.43;;;21.67;;
45368;SDS011;51342;55.250;37.668;2024-02-23T04:59:23;56.47;;;20.43;;
45368;SDS011;51342;55.250;37.668;2024-02-23T05:01:54;55.73;;;21.10;;
45368;SDS011;51342;55.250;37.668;2024-02-23T05:04:26;62.83;;;22.30;;
45368;SDS011;51342;55.250;37.668;2024-02-23T05:06:57;60.13;;;21.90;;
45368;SDS011;51342;55.250;37.668;2024-02-23T05:09:29;59.90;;;23.07;;
45368;SDS011;51342;55.250;37.668;2024-02-23T05:12:00;57.60;;;21.30;;
45368;SDS011;51342;55.250;37.668;2024-02-23T05:14:32;57.43;;;22.70;;
45368;SDS011;51342;55.250;37.668;2024-02-23T05:17:03;62.10;;;22.73;;
45368;SDS011;51342;55.250;37.668;2024-02-23T05:19:35;53.27;;;20.53;;
45368;SDS011;51342;55.250;37.668;2024-02-23T05:22:06;52.77;;;21.17;;
45368;SDS011;51342;55.250;37.668;2024-02-23T05:24:37;51.80;;;19.33;;
45368;SDS011;51342;55.250;37.668;2024-02-23T05:27:09;52.13;;;19.97;;
45368;SDS011;51342;55.250;37.668;2024-02-23T05:29:40;55.27;;;23.33;;
45368;SDS011;51342;55.250;37.668;2024-02-23T05:32:12;52.50;;;20.33;;
45368;SDS011;51342;55.250;37.668;2024-02-23T05:34:43;57.60;;;22.50;;
45368;SDS011;51342;55.250;37.668;2024-02-23T05:37:15;52.57;;;21.50;;
45368;SDS011;51342;55.250;37.668;2024-02-23T05:39:46;58.93;;;20.67;;
45368;SDS011;51342;55.250;37.668;2024-02-23T05:42:18;58.50;;;21.77;;
45368;SDS011;51342;55.250;37.668;2024-02-23T05:44:49;52.63;;;21.17;;
45368;SDS011;51342;55.250;37.668;2024-02-23T05:47:20;53.70;;;22.77;;
45368;SDS011;51342;55.250;37.668;2024-02-23T05:49:53;56.77;;;21.23;;
45368;SDS011;51342;55.250;37.668;2024-02-23T05:52:24;53.57;;;22.10;;
45368;SDS011;51342;55.250;37.668;2024-02-23T05:54:56;54.33;;;21.10;;
45368;SDS011;51342;55.250;37.668;2024-02-23T05:57:27;47.93;;;19.30;;
45368;SDS011;51342;55.250;37.668;2024-02-23T05:59:59;53.60;;;21.07;;
45368;SDS011;51342;55.250;37.668;2024-02-23T06:02:30;56.37;;;21.47;;
45368;SDS011;51342;55.250;37.668;2024-02-23T06:05:04;51.80;;;20.10;;
45368;SDS011;51342;55.250;37.668;2024-02-23T06:07:38;53.87;;;21.10;;
45368;SDS011;51342;55.250;37.668;2024-02-23T06:10:09;54.10;;;21.60;;
45368;SDS011;51342;55.250;37.668;2024-02-23T06:12:41;50.97;;;19.83;;
45368;SDS011;51342;55.250;37.668;2024-02-23T06:15:12;48.73;;;21.80;;
45368;SDS011;51342;55.250;37.668;2024-02-23T06:17:44;45.73;;;21.00;;
45368;SDS011;51342;55.250;37.668;2024-02-23T06:20:15;47.77;;;20.03;;
45368;SDS011;51342;55.250;37.668;2024-02-23T06:22:47;46.63;;;20.77;;
45368;SDS011;51342;55.250;37.668;2024-02-23T06:25:18;49.13;;;19.57;;
45368;SDS011;51342;55.250;37.668;2024-02-23T06:27:50;47.63;;;20.90;;
45368;SDS011;51342;55.250;37.668;2024-02-23T06:30:21;45.43;;;18.23;;
45368;SDS011;51342;55.250;37.668;2024-02-23T06:32:52;51.47;;;20.83;;
45368;SDS011;51342;55.250;37.668;2024-02-23T06:35:24;50.33;;;19.27;;
45368;SDS011;51342;55.250;37.668;2024-02-23T06:37:56;50.90;;;19.37;;
45368;SDS011;51342;55.250;37.668;2024-02-23T06:40:27;46.17;;;20.33;;
45368;SDS011;51342;55.250;37.668;2024-02-23T06:42:58;43.87;;;18.40;;
45368;SDS011;51342;55.250;37.668;2024-02-23T06:45:30;38.83;;;18.50;;
45368;SDS011;51342;55.250;37.668;2024-02-23T06:48:02;46.77;;;18.90;;
45368;SDS011;51342;55.250;37.668;2024-02-23T06:50:35;43.40;;;18.60;;
45368;SDS011;51342;55.250;37.668;2024-02-23T06:53:06;42.43;;;18.70;;
45368;SDS011;51342;55.250;37.668;2024-02-23T06:55:38;46.67;;;17.47;;
45368;SDS011;51342;55.250;37.668;2024-02-23T06:58:09;46.23;;;19.67;;
45368;SDS011;51342;55.250;37.668;2024-02-23T07:00:41;42.07;;;17.20;;
45368;SDS011;51342;55.250;37.668;2024-02-23T07:03:13;44.80;;;19.37;;
45368;SDS011;51342;55.250;37.668;2024-02-23T07:05:45;41.10;;;18.13;;
45368;SDS011;51342;55.250;37.668;2024-02-23T07:08:18;38.13;;;17.37;;
45368;SDS011;51342;55.250;37.668;2024-02-23T07:10:49;43.73;;;19.80;;
45368;SDS011;51342;55.250;37.668;2024-02-23T07:13:21;39.20;;;17.97;;
45368;SDS011;51342;55.250;37.668;2024-02-23T07:15:52;39.93;;;16.83;;
45368;SDS011;51342;55.250;37.668;2024-02-23T07:18:24;40.63;;;17.27;;
45368;SDS011;51342;55.250;37.668;2024-02-23T07:20:55;32.03;;;15.50;;
45368;SDS011;51342;55.250;37.668;2024-02-23T07:23:27;41.57;;;18.13;;
45368;SDS011;51342;55.250;37.668;2024-02-23T07:25:58;40.07;;;17.53;;
45368;SDS011;51342;55.250;37.668;2024-02-23T07:28:29;37.10;;;16.77;;
45368;SDS011;51342;55.250;37.668;2024-02-23T07:31:01;39.53;;;17.17;;
45368;SDS011;51342;55.250;37.668;2024-02-23T07:33:32;36.47;;;16.57;;
45368;SDS011;51342;55.250;37.668;2024-02-23T07:36:04;38.23;;;16.60;;
45368;SDS011;51342;55.250;37.668;2024-02-23T07:38:36;37.17;;;15.43;;
45368;SDS011;51342;55.250;37.668;2024-02-23T07:41:07;40.90;;;16.93;;
45368;SDS011;51342;55.250;37.668;2024-02-23T07:43:39;34.43;;;16.30;;
45368;SDS011;51342;55.250;37.668;2024-02-23T07:46:11;34.17;;;15.87;;
45368;SDS011;51342;55.250;37.668;2024-02-23T07:48:43;37.47;;;15.87;;
45368;SDS011;51342;55.250;37.668;2024-02-23T07:51:14;35.10;;;16.57;;
45368;SDS011;51342;55.250;37.668;2024-02-23T07:53:46;33.20;;;16.10;;
45368;SDS011;51342;55.250;37.668;2024-02-23T07:56:17;35.87;;;15.13;;
45368;SDS011;51342;55.250;37.668;2024-02-23T07:58:49;32.30;;;16.27;;
45368;SDS011;51342;55.250;37.668;2024-02-23T08:01:20;33.00;;;15.50;;
45368;SDS011;51342;55.250;37.668;2024-02-23T08:03:52;35.17;;;16.47;;
45368;SDS011;51342;55.250;37.668;2024-02-23T08:06:23;36.40;;;16.57;;
45368;SDS011;51342;55.250;37.668;2024-02-23T08:08:54;30.60;;;14.70;;
45368;SDS011;51342;55.250;37.668;2024-02-23T08:11:26;32.27;;;14.93;;
45368;SDS011;51342;55.250;37.668;2024-02-23T08:13:57;32.33;;;15.93;;
45368;SDS011;51342;55.250;37.668;2024-02-23T08:16:29;32.17;;;16.90;;
45368;SDS011;51342;55.250;37.668;2024-02-23T08:19:12;35.37;;;16.40;;
45368;SDS011;51342;55.250;37.668;2024-02-23T08:21:44;33.93;;;17.03;;
45368;SDS011;51342;55.250;37.668;2024-02-23T08:24:15;36.50;;;16.57;;
45368;SDS011;51342;55.250;37.668;2024-02-23T08:26:47;36.77;;;16.70;;
45368;SDS011;51342;55.250;37.668;2024-02-23T08:29:19;30.43;;;15.83;;
45368;SDS011;51342;55.250;37.668;2024-02-23T08:31:50;32.73;;;16.73;;
45368;SDS011;51342;55.250;37.668;2024-02-23T08:34:22;31.07;;;15.63;;
45368;SDS011;51342;55.250;37.668;2024-02-23T08:36:53;34.07;;;17.20;;
45368;SDS011;51342;55.250;37.668;2024-02-23T08:39:25;30.57;;;16.17;;
45368;SDS011;51342;55.250;37.668;2024-02-23T08:41:57;38.13;;;16.47;;
45368;SDS011;51342;55.250;37.668;2024-02-23T08:44:28;30.83;;;14.63;;
45368;SDS011;51342;55.250;37.668;2024-02-23T08:47:00;32.47;;;15.90;;
45368;SDS011;51342;55.250;37.668;2024-02-23T08:49:32;31.47;;;15.77;;
45368;SDS011;51342;55.250;37.668;2024-02-23T08:52:04;33.10;;;17.13;;
45368;SDS011;51342;55.250;37.668;2024-02-23T08:54:36;32.63;;;15.67;;
45368;SDS011;51342;55.250;37.668;2024-02-23T08:57:08;31.20;;;15.53;;
45368;SDS011;51342;55.250;37.668;2024-02-23T08:59:40;35.40;;;16.07;;
45368;SDS011;51342;55.250;37.668;2024-02-23T09:02:11;32.50;;;15.87;;
45368;SDS011;51342;55.250;37.668;2024-02-23T09:04:43;31.90;;;16.47;;
45368;SDS011;51342;55.250;37.668;2024-02-23T09:07:16;37.97;;;16.73;;
45368;SDS011;51342;55.250;37.668;2024-02-23T09:09:50;37.07;;;17.33;;
45368;SDS011;51342;55.250;37.668;2024-02-23T09:12:22;32.83;;;16.67;;
45368;SDS011;51342;55.250;37.668;2024-02-23T09:14:53;33.73;;;15.70;;
45368;SDS011;51342;55.250;37.668;2024-02-23T09:17:25;35.27;;;16.67;;
45368;SDS011;51342;55.250;37.668;2024-02-23T09:19:56;31.03;;;15.37;;
45368;SDS011;51342;55.250;37.668;2024-02-23T09:22:28;31.93;;;14.97;;
45368;SDS011;51342;55.250;37.668;2024-02-23T09:25:00;34.97;;;16.33;;
45368;SDS011;51342;55.250;37.668;2024-02-23T09:27:31;35.67;;;16.43;;
45368;SDS011;51342;55.250;37.668;2024-02-23T09:30:03;35.80;;;17.03;;
45368;SDS011;51342;55.250;37.668;2024-02-23T09:32:35;32.33;;;17.07;;
45368;SDS011;51342;55.250;37.668;2024-02-23T09:35:07;32.10;;;16.10;;
45368;SDS011;51342;55.250;37.668;2024-02-23T09:37:38;35.17;;;18.63;;
45368;SDS011;51342;55.250;37.668;2024-02-23T09:40:10;33.73;;;17.20;;
45368;SDS011;51342;55.250;37.668;2024-02-23T09:42:42;35.70;;;16.43;;
45368;SDS011;51342;55.250;37.668;2024-02-23T09:45:14;35.33;;;16.87;;
45368;SDS011;51342;55.250;37.668;2024-02-23T09:47:47;34.23;;;16.33;;
45368;SDS011;51342;55.250;37.668;2024-02-23T09:50:19;33.93;;;16.83;;
45368;SDS011;51342;55.250;37.668;2024-02-23T09:52:53;35.47;;;17.20;;
45368;SDS011;51342;55.250;37.668;2024-02-23T09:55:27;34.87;;;17.00;;
45368;SDS011;51342;55.250;37.668;2024-02-23T09:57:58;36.50;;;16.00;;
45368;SDS011;51342;55.250;37.668;2024-02-23T10:00:30;36.73;;;16.57;;
45368;SDS011;51342;55.250;37.668;2024-02-23T10:03:04;36.03;;;17.23;;
45368;SDS011;51342;55.250;37.668;2024-02-23T10:05:36;37.67;;;15.80;;
45368;SDS011;51342;55.250;37.668;2024-02-23T10:08:09;34.50;;;16.77;;
45368;SDS011;51342;55.250;37.668;2024-02-23T10:10:41;38.57;;;17.03;;
45368;SDS011;51342;55.250;37.668;2024-02-23T10:13:12;36.80;;;16.27;;
45368;SDS011;51342;55.250;37.668;2024-02-23T10:15:44;35.93;;;16.10;;
45368;SDS011;51342;55.250;37.668;2024-02-23T10:18:16;35.83;;;16.77;;
45368;SDS011;51342;55.250;37.668;2024-02-23T10:20:48;45.83;;;19.87;;
45368;SDS011;51342;55.250;37.668;2024-02-23T10:23:21;34.80;;;16.07;;
45368;SDS011;51342;55.250;37.668;2024-02-23T10:25:53;37.63;;;16.37;;
45368;SDS011;51342;55.250;37.668;2024-02-23T10:28:25;40.00;;;17.77;;
45368;SDS011;51342;55.250;37.668;2024-02-23T10:30:58;41.03;;;17.20;;
45368;SDS011;51342;55.250;37.668;2024-02-23T10:33:31;35.50;;;17.63;;
45368;SDS011;51342;55.250;37.668;2024-02-23T10:36:03;39.63;;;17.33;;
45368;SDS011;51342;55.250;37.668;2024-02-23T10:38:39;34.57;;;16.37;;
45368;SDS011;51342;55.250;37.668;2024-02-23T10:41:13;43.13;;;17.43;;
45368;SDS011;51342;55.250;37.668;2024-02-23T10:43:48;36.67;;;16.97;;
45368;SDS011;51342;55.250;37.668;2024-02-23T10:46:20;38.33;;;18.33;;
45368;SDS011;51342;55.250;37.668;2024-02-23T10:48:52;40.17;;;18.23;;
45368;SDS011;51342;55.250;37.668;2024-02-23T10:51:26;40.80;;;18.00;;
45368;SDS011;51342;55.250;37.668;2024-02-23T10:53:58;41.47;;;17.87;;
45368;SDS011;51342;55.250;37.668;2024-02-23T10:56:31;41.00;;;18.43;;
45368;SDS011;51342;55.250;37.668;2024-02-23T10:59:03;40.17;;;17.87;;
45368;SDS011;51342;55.250;37.668;2024-02-23T11:01:36;42.33;;;18.80;;
45368;SDS011;51342;55.250;37.668;2024-02-23T11:04:10;41.53;;;18.47;;
45368;SDS011;51342;55.250;37.668;2024-02-23T11:06:42;44.43;;;18.30;;
45368;SDS011;51342;55.250;37.668;2024-02-23T11:09:23;46.40;;;18.40;;
45368;SDS011;51342;55.250;37.668;2024-02-23T11:11:56;39.30;;;19.07;;
45368;SDS011;51342;55.250;37.668;2024-02-23T11:14:34;44.20;;;18.60;;
45368;SDS011;51342;55.250;37.668;2024-02-23T11:19:51;45.40;;;19.63;;
45368;SDS011;51342;55.250;37.668;2024-02-23T11:22:34;46.77;;;20.27;;
45368;SDS011;51342;55.250;37.668;2024-02-23T11:25:07;44.43;;;19.23;;
45368;SDS011;51342;55.250;37.668;2024-02-23T11:27:41;48.37;;;21.20;;
45368;SDS011;51342;55.250;37.668;2024-02-23T11:30:16;46.83;;;20.53;;
45368;SDS011;51342;55.250;37.668;2024-02-23T11:32:48;46.33;;;20.80;;
45368;SDS011;51342;55.250;37.668;2024-02-23T11:35:25;47.30;;;21.03;;
45368;SDS011;51342;55.250;37.668;2024-02-23T11:37:58;46.60;;;20.30;;
45368;SDS011;51342;55.250;37.668;2024-02-23T11:40:36;51.50;;;21.00;;
45368;SDS011;51342;55.250;37.668;2024-02-23T11:43:08;49.23;;;20.87;;
45368;SDS011;51342;55.250;37.668;2024-02-23T11:45:41;48.37;;;20.80;;
45368;SDS011;51342;55.250;37.668;2024-02-23T11:48:13;52.77;;;20.33;;
45368;SDS011;51342;55.250;37.668;2024-02-23T11:50:44;45.50;;;20.63;;
45368;SDS011;51342;55.250;37.668;2024-02-23T11:53:16;50.60;;;21.37;;
45368;SDS011;51342;55.250;37.668;2024-02-23T11:55:48;55.27;;;21.27;;
45368;SDS011;51342;55.250;37.668;2024-02-23T11:58:20;52.90;;;22.03;;
45368;SDS011;51342;55.250;37.668;2024-02-23T12:00:51;54.33;;;22.13;;
45368;SDS011;51342;55.250;37.668;2024-02-23T12:03:23;54.90;;;21.60;;
45368;SDS011;51342;55.250;37.668;2024-02-23T12:05:59;54.87;;;22.00;;
45368;SDS011;51342;55.250;37.668;2024-02-23T12:08:32;54.60;;;21.83;;
45368;SDS011;51342;55.250;37.668;2024-02-23T12:11:13;59.00;;;22.87;;
45368;SDS011;51342;55.250;37.668;2024-02-23T12:13:57;52.07;;;22.03;;
45368;SDS011;51342;55.250;37.668;2024-02-23T12:16:29;55.40;;;22.53;;
45368;SDS011;51342;55.250;37.668;2024-02-23T12:19:00;52.60;;;23.47;;
45368;SDS011;51342;55.250;37.668;2024-02-23T12:21:36;56.67;;;24.23;;
45368;SDS011;51342;55.250;37.668;2024-02-23T12:24:08;56.87;;;23.03;;
45368;SDS011;51342;55.250;37.668;2024-02-23T12:26:54;57.57;;;22.43;;
45368;SDS011;51342;55.250;37.668;2024-02-23T12:29:26;55.10;;;23.27;;
45368;SDS011;51342;55.250;37.668;2024-02-23T12:32:04;54.17;;;23.07;;
45368;SDS011;51342;55.250;37.668;2024-02-23T12:34:36;54.03;;;22.37;;
45368;SDS011;51342;55.250;37.668;2024-02-23T12:37:08;57.00;;;23.07;;
45368;SDS011;51342;55.250;37.668;2024-02-23T12:39:39;54.43;;;22.37;;
45368;SDS011;51342;55.250;37.668;2024-02-23T12:42:23;52.33;;;23.23;;
45368;SDS011;51342;55.250;37.668;2024-02-23T12:44:54;50.47;;;23.00;;
45368;SDS011;51342;55.250;37.668;2024-02-23T12:47:26;53.70;;;21.80;;
45368;SDS011;51342;55.250;37.668;2024-02-23T12:49:57;49.70;;;22.70;;
45368;SDS011;51342;55.250;37.668;2024-02-23T12:52:29;51.50;;;22.67;;
45368;SDS011;51342;55.250;37.668;2024-02-23T12:55:01;52.83;;;22.13;;
45368;SDS011;51342;55.250;37.668;2024-02-23T12:57:32;56.20;;;23.83;;
45368;SDS011;51342;55.250;37.668;2024-02-23T13:00:04;54.60;;;22.43;;
45368;SDS011;51342;55.250;37.668;2024-02-23T13:02:37;49.60;;;21.70;;
45368;SDS011;51342;55.250;37.668;2024-02-23T13:05:08;49.20;;;22.87;;
45368;SDS011;51342;55.250;37.668;2024-02-23T13:07:40;58.73;;;24.20;;
45368;SDS011;51342;55.250;37.668;2024-02-23T13:10:13;57.53;;;25.40;;
45368;SDS011;51342;55.250;37.668;2024-02-23T13:12:45;50.67;;;22.93;;
45368;SDS011;51342;55.250;37.668;2024-02-23T13:15:29;52.17;;;22.43;;
45368;SDS011;51342;55.250;37.668;2024-02-23T13:18:01;53.93;;;23.90;;
45368;SDS011;51342;55.250;37.668;2024-02-23T13:20:33;53.70;;;24.60;;
45368;SDS011;51342;55.250;37.668;2024-02-23T13:23:05;54.97;;;23.70;;
45368;SDS011;51342;55.250;37.668;2024-02-23T13:25:39;50.43;;;23.17;;
45368;SDS011;51342;55.250;37.668;2024-02-23T13:28:11;54.70;;;25.87;;
45368;SDS011;51342;55.250;37.668;2024-02-23T13:30:43;52.27;;;23.13;;
45368;SDS011;51342;55.250;37.668;2024-02-23T13:33:21;53.70;;;23.73;;
45368;SDS011;51342;55.250;37.668;2024-02-23T13:36:16;51.57;;;22.57;;
45368;SDS011;51342;55.250;37.668;2024-02-23T13:38:47;46.97;;;21.77;;
45368;SDS011;51342;55.250;37.668;2024-02-23T13:41:19;49.77;;;23.73;;
45368;SDS011;51342;55.250;37.668;2024-02-23T13:43:50;51.23;;;23.43;;
45368;SDS011;51342;55.250;37.668;2024-02-23T13:46:22;49.00;;;22.07;;
45368;SDS011;51342;55.250;37.668;2024-02-23T13:49:06;53.07;;;23.40;;
45368;SDS011;51342;55.250;37.668;2024-02-23T13:51:39;48.77;;;24.43;;
45368;SDS011;51342;55.250;37.668;2024-02-23T13:54:11;50.80;;;22.17;;
45368;SDS011;51342;55.250;37.668;2024-02-23T13:56:43;50.07;;;22.33;;
45368;SDS011;51342;55.250;37.668;2024-02-23T13:59:14;46.73;;;22.27;;
45368;SDS011;51342;55.250;37.668;2024-02-23T14:01:46;53.80;;;22.83;;
45368;SDS011;51342;55.250;37.668;2024-02-23T14:04:18;46.87;;;22.50;;
45368;SDS011;51342;55.250;37.668;2024-02-23T14:06:49;51.57;;;22.63;;
45368;SDS011;51342;55.250;37.668;2024-02-23T14:09:21;44.90;;;21.67;;
45368;SDS011;51342;55.250;37.668;2024-02-23T14:11:52;50.03;;;22.23;;
45368;SDS011;51342;55.250;37.668;2024-02-23T14:14:24;45.67;;;22.27;;
45368;SDS011;51342;55.250;37.668;2024-02-23T14:16:56;44.57;;;22.73;;
45368;SDS011;51342;55.250;37.668;2024-02-23T14:19:40;46.60;;;21.97;;
45368;SDS011;51342;55.250;37.668;2024-02-23T14:22:11;46.73;;;22.07;;
45368;SDS011;51342;55.250;37.668;2024-02-23T14:24:43;47.73;;;22.33;;
45368;SDS011;51342;55.250;37.668;2024-02-23T14:27:14;47.63;;;23.37;;
45368;SDS011;51342;55.250;37.668;2024-02-23T14:29:46;46.83;;;23.13;;
45368;SDS011;51342;55.250;37.668;2024-02-23T14:32:18;43.33;;;22.17;;
45368;SDS011;51342;55.250;37.668;2024-02-23T14:34:49;41.03;;;21.13;;
45368;SDS011;51342;55.250;37.668;2024-02-23T14:37:21;42.03;;;20.90;;
45368;SDS011;51342;55.250;37.668;2024-02-23T14:39:53;46.10;;;21.90;;
45368;SDS011;51342;55.250;37.668;2024-02-23T14:42:24;47.00;;;21.13;;